PA3DZX-13 Weather Reports


Display with metric or nautical units.
time (UTC)temp
F
wind
direction
speed
MPH
gust
MPH
rain 1hr
in
rain 24hr
in
rain mn
in
humidity
%
barometer
mb
20220522004541 42 170 0.0 2.0 0.00 0.00 0.00 99 1019.5
20220522003040 42 156 0.0 0.0 0.00 0.00 0.00 98 1019.7
20220522001541 42 156 0.0 0.0 0.00 0.00 0.00 98 1019.7
20220522000040 42 157 0.0 2.0 0.00 0.00 0.00 99 1019.8
20220521234540 42 245 0.0 0.0 0.00 0.00 0.00 97 1019.8
20220521233040 44 243 0.0 0.0 0.00 0.00 0.00 98 1019.9
20220521231540 44 243 0.0 0.0 0.00 0.00 0.00 98 1020.0
20220521230039 44 245 0.0 0.0 0.00 0.00 0.00 98 1020.1
20220521224539 44 245 0.0 0.0 0.00 0.00 0.00 98 1020.1
20220521223039 44 245 0.0 0.0 0.00 0.00 0.00 96 1020.3
20220521221539 46 244 0.0 0.0 0.00 0.00 0.00 96 1020.3
20220521220039 46 243 0.0 0.0 0.00 0.00 0.00 94 1020.4
20220521214539 46 244 0.0 0.0 0.00 0.00 0.00 95 1020.5
20220521213038 48 244 0.0 0.0 0.00 0.00 0.00 91 1020.6
20220521211538 50 295 0.0 2.0 0.00 0.00 0.00 84 1020.6
20220521210038 50 295 0.0 2.0 0.00 0.00 0.00 84 1020.6
20220521204539 53 340 2.0 4.0 0.00 0.00 0.00 72 1020.5
20220521203037 55 340 2.0 6.0 0.00 0.00 0.00 70 1020.5
20220521201538 55 340 2.0 6.0 0.00 0.00 0.00 70 1020.5
20220521200037 55 329 4.0 8.0 0.00 0.00 0.00 70 1020.4
20220521194537 57 325 6.0 8.0 0.00 0.00 0.00 68 1020.4
20220521193037 57 311 6.0 8.0 0.00 0.00 0.00 67 1020.4
20220521191537 57 311 6.0 11.0 0.00 0.00 0.00 66 1020.4
20220521190037 59 314 8.0 13.0 0.00 0.00 0.00 63 1020.2
20220521184536 59 317 8.0 13.0 0.00 0.00 0.00 64 1020.2
20220521183036 59 319 8.0 13.0 0.00 0.00 0.00 64 1020.2
20220521181536 60 300 8.0 15.0 0.00 0.00 0.00 61 1020.1
20220521180036 62 302 8.0 15.0 0.00 0.00 0.00 57 1020.2
20220521174537 62 301 8.0 15.0 0.00 0.00 0.00 59 1020.1
20220521173036 60 319 8.0 15.0 0.00 0.00 0.00 58 1020.1
20220521171536 62 313 8.0 15.0 0.00 0.00 0.00 57 1020.1
20220521170035 62 297 8.0 13.0 0.00 0.00 0.00 54 1020.2
20220521164536 62 297 8.0 13.0 0.00 0.00 0.00 54 1020.2
20220521163035 62 285 11.0 17.0 0.00 0.00 0.00 50 1020.4
20220521161535 62 284 11.0 17.0 0.00 0.00 0.00 50 1020.4
20220521160035 62 284 11.0 17.0 0.00 0.00 0.00 50 1020.4
20220521154535 62 280 11.0 17.0 0.00 0.00 0.00 49 1020.4
20220521153034 64 273 11.0 20.0 0.00 0.00 0.00 50 1020.5
20220521151534 62 285 11.0 20.0 0.00 0.00 0.00 50 1020.7
20220521150034 66 271 11.0 17.0 0.00 0.00 0.00 49 1020.7
20220521144534 66 271 11.0 17.0 0.00 0.00 0.00 49 1020.7
20220521143034 64 270 11.0 17.0 0.00 0.00 0.00 52 1020.7
20220521141534 64 272 11.0 20.0 0.00 0.00 0.00 55 1020.8
20220521140033 62 266 13.0 22.0 0.00 0.00 0.00 55 1020.8
20220521134533 62 256 13.0 22.0 0.00 0.00 0.00 54 1020.8
20220521133033 62 251 13.0 20.0 0.00 0.00 0.00 56 1020.8
20220521131532 62 258 13.0 22.0 0.00 0.00 0.00 55 1020.7
20220521130032 62 258 13.0 22.0 0.00 0.00 0.00 55 1020.7
20220521124532 62 258 13.0 22.0 0.00 0.00 0.00 55 1020.7
20220521123032 64 262 11.0 17.0 0.00 0.00 0.00 58 1020.7
20220521121532 60 265 11.0 17.0 0.00 0.00 0.00 59 1020.6
20220521120032 60 265 11.0 17.0 0.00 0.00 0.00 59 1020.6
20220521114532 60 250 11.0 20.0 0.00 0.00 0.00 61 1020.5
20220521113031 60 265 13.0 22.0 0.00 0.00 0.00 59 1020.4
20220521111531 60 265 13.0 22.0 0.00 0.00 0.00 59 1020.4
20220521110030 60 273 8.0 17.0 0.00 0.00 0.00 61 1020.3
20220521104530 60 273 8.0 17.0 0.00 0.00 0.00 61 1020.3
20220521103030 62 266 11.0 17.0 0.00 0.00 0.00 58 1020.3
20220521101530 59 278 11.0 20.0 0.00 0.00 0.00 63 1020.2
20220521100030 60 259 15.0 24.0 0.00 0.00 0.00 64 1020.1
20220521094530 60 259 15.0 24.0 0.00 0.00 0.00 64 1020.1
20220521093030 59 254 13.0 22.0 0.00 0.00 0.00 67 1020.0
20220521091530 59 254 13.0 22.0 0.00 0.00 0.00 67 1020.0
20220521090028 60 264 13.0 22.0 0.00 0.00 0.00 66 1020.0
20220521084529 59 255 15.0 22.0 0.00 0.00 0.00 70 1020.0
20220521083028 57 264 13.0 20.0 0.00 0.00 0.00 72 1019.7
20220521081528 57 264 13.0 20.0 0.00 0.00 0.00 72 1019.7
20220521080028 57 252 13.0 17.0 0.00 0.00 0.00 77 1019.4
20220521074528 57 252 13.0 17.0 0.00 0.00 0.00 77 1019.4
20220521073027 57 246 13.0 20.0 0.00 0.00 0.00 78 1019.4
20220521071527 55 248 15.0 24.0 0.00 0.00 0.00 78 1019.2
20220521070026 55 254 13.0 22.0 0.00 0.00 0.00 79 1019.1
20220521064527 55 247 13.0 20.0 0.00 0.00 0.00 80 1019.0
20220521063026 55 243 11.0 20.0 0.00 0.00 0.00 82 1018.9
20220521061526 55 246 13.0 20.0 0.00 0.00 0.00 82 1018.8
20220521060026 55 232 11.0 17.0 0.00 0.00 0.00 85 1018.7
20220521054526 55 232 11.0 17.0 0.00 0.00 0.00 85 1018.7
20220521053026 53 229 11.0 17.0 0.00 0.00 0.00 87 1018.6
20220521051526 53 227 11.0 17.0 0.00 0.00 0.00 87 1018.5
20220521050026 53 234 11.0 15.0 0.00 0.00 0.00 86 1018.4
20220521044526 53 237 11.0 17.0 0.00 0.00 0.00 87 1018.2
20220521043025 53 234 8.0 15.0 0.00 0.00 0.00 87 1018.1
20220521041525 53 228 11.0 17.0 0.00 0.00 0.00 86 1018.2
20220521040025 51 232 11.0 17.0 0.00 0.00 0.00 87 1018.2
20220521034525 51 225 8.0 15.0 0.00 0.00 0.00 87 1018.1
20220521033025 51 223 8.0 15.0 0.00 0.00 0.00 87 1018.2
20220521031524 51 223 8.0 15.0 0.00 0.00 0.00 87 1018.2
20220521030024 51 223 8.0 15.0 0.00 0.00 0.00 88 1018.2
20220521024524 51 219 8.0 17.0 0.00 0.00 0.00 87 1018.2
20220521023024 51 217 8.0 17.0 0.00 0.00 0.00 87 1018.2
20220521021524 51 210 8.0 20.0 0.00 0.00 0.00 88 1018.3
20220521020024 51 218 8.0 15.0 0.00 0.00 0.00 89 1018.5
20220521014524 51 218 8.0 15.0 0.00 0.00 0.00 89 1018.5
20220521013023 51 219 11.0 15.0 0.00 0.00 0.00 89 1018.4
20220521011523 51 222 6.0 13.0 0.00 0.00 0.00 89 1018.4
20220521010022 51 235 8.0 15.0 0.00 0.00 0.00 87 1018.4